createdAt,value
2018-03-27T00:02:11.921Z,13.00
2018-03-27T00:04:39.760Z,7.87
2018-03-27T00:07:07.437Z,11.53
2018-03-27T00:09:35.089Z,9.90
2018-03-27T00:12:02.974Z,12.10
2018-03-27T00:14:30.658Z,12.70
2018-03-27T00:16:58.254Z,10.60
2018-03-27T00:19:25.833Z,11.90
2018-03-27T00:21:54.112Z,8.83
2018-03-27T00:24:21.706Z,12.60
2018-03-27T00:27:01.218Z,12.67
2018-03-27T00:29:40.512Z,10.00
2018-03-27T00:32:19.918Z,17.00
2018-03-27T00:34:59.287Z,11.30
2018-03-27T00:37:38.877Z,11.20
2018-03-27T00:40:18.428Z,8.80
2018-03-27T00:42:51.956Z,9.10
2018-03-27T00:45:19.853Z,10.50
2018-03-27T00:47:47.522Z,14.37
2018-03-27T00:50:15.320Z,12.00
2018-03-27T00:52:42.969Z,14.20
2018-03-27T00:55:10.695Z,13.07
2018-03-27T00:57:38.599Z,11.40
2018-03-27T01:00:06.470Z,12.00
2018-03-27T01:02:34.297Z,12.40
2018-03-27T01:05:07.463Z,17.23
2018-03-27T01:07:35.086Z,10.37
2018-03-27T01:10:02.686Z,11.83
2018-03-27T01:12:30.354Z,12.40
2018-03-27T01:14:58.739Z,13.40
2018-03-27T01:17:26.415Z,16.90
2018-03-27T01:19:54.374Z,10.90
2018-03-27T01:22:22.039Z,8.87
2018-03-27T01:24:49.759Z,12.77
2018-03-27T01:27:17.633Z,14.20
2018-03-27T01:29:45.544Z,13.10
2018-03-27T01:32:13.142Z,15.37
2018-03-27T01:34:40.728Z,14.37
2018-03-27T01:37:09.263Z,14.50
2018-03-27T01:39:36.911Z,10.20
2018-03-27T01:42:04.500Z,31.30
2018-03-27T01:44:32.171Z,10.70
2018-03-27T01:47:00.158Z,15.80
2018-03-27T01:49:27.873Z,11.77
2018-03-27T01:51:56.081Z,13.10
2018-03-27T01:54:23.883Z,10.37
2018-03-27T01:56:51.571Z,16.23
2018-03-27T01:59:19.646Z,11.07
2018-03-27T02:01:47.307Z,12.33
2018-03-27T02:04:15.042Z,13.33
2018-03-27T02:06:43.056Z,13.90
2018-03-27T02:09:10.817Z,11.87
2018-03-27T02:11:44.216Z,13.80
2018-03-27T02:14:17.837Z,18.10
2018-03-27T02:16:51.304Z,16.13
2018-03-27T02:19:24.634Z,11.87
2018-03-27T02:21:52.190Z,15.40
2018-03-27T02:24:20.416Z,11.03
2018-03-27T02:26:48.142Z,13.77
2018-03-27T02:29:15.867Z,12.63
2018-03-27T02:31:44.122Z,14.13
2018-03-27T02:34:11.873Z,14.83
2018-03-27T02:36:39.493Z,15.70
2018-03-27T02:39:07.220Z,15.27
2018-03-27T02:41:34.860Z,14.17
2018-03-27T02:44:02.469Z,14.17
2018-03-27T02:46:30.210Z,14.30
2018-03-27T02:48:58.071Z,16.80
2018-03-27T02:51:26.602Z,14.77
2018-03-27T02:53:54.454Z,16.77
2018-03-27T02:56:22.119Z,15.67
2018-03-27T02:58:49.775Z,20.63
2018-03-27T03:01:17.417Z,14.30
2018-03-27T03:03:45.199Z,13.93
2018-03-27T03:06:12.886Z,12.40
2018-03-27T03:08:40.877Z,16.40
2018-03-27T03:11:08.532Z,13.53
2018-03-27T03:13:36.261Z,19.93
2018-03-27T03:16:03.879Z,13.80
2018-03-27T03:18:31.488Z,12.07
2018-03-27T03:20:59.167Z,20.67
2018-03-27T03:23:26.946Z,11.70
2018-03-27T03:25:54.525Z,14.23
2018-03-27T03:28:22.232Z,16.43
2018-03-27T03:30:49.854Z,17.37
2018-03-27T03:33:17.481Z,14.50
2018-03-27T03:35:45.708Z,14.70
2018-03-27T03:38:13.303Z,15.93
2018-03-27T03:40:40.965Z,16.87
2018-03-27T03:43:08.599Z,17.60
2018-03-27T03:45:36.271Z,21.00
2018-03-27T03:48:03.932Z,17.70
2018-03-27T03:50:31.555Z,20.17
2018-03-27T03:52:59.136Z,16.83
2018-03-27T03:55:26.841Z,21.20
2018-03-27T03:57:54.439Z,23.40
2018-03-27T04:00:22.143Z,19.70
2018-03-27T04:02:49.737Z,21.80
2018-03-27T04:05:17.599Z,21.13
2018-03-27T04:07:45.248Z,23.50
2018-03-27T04:10:13.295Z,23.00
2018-03-27T04:12:40.945Z,26.00
2018-03-27T04:15:08.557Z,22.90
2018-03-27T04:17:36.196Z,19.90
2018-03-27T04:20:03.779Z,25.33
2018-03-27T04:22:31.439Z,23.00
2018-03-27T04:24:59.053Z,22.67
2018-03-27T04:27:26.744Z,24.17
2018-03-27T04:29:54.379Z,23.30
2018-03-27T04:32:22.007Z,27.60
2018-03-27T04:34:49.605Z,22.57
2018-03-27T04:37:17.229Z,23.87
2018-03-27T04:39:44.865Z,24.57
2018-03-27T04:42:12.549Z,22.70
2018-03-27T04:44:40.177Z,19.30
2018-03-27T04:47:07.788Z,22.00
2018-03-27T04:49:35.411Z,24.30
2018-03-27T04:52:03.003Z,26.70
2018-03-27T04:54:30.667Z,27.33
2018-03-27T04:56:58.302Z,35.93
2018-03-27T04:59:25.902Z,45.27
2018-03-27T05:01:53.529Z,44.23
2018-03-27T05:04:21.113Z,45.20
2018-03-27T05:06:48.746Z,50.63
2018-03-27T05:09:16.337Z,45.83
2018-03-27T05:11:44.254Z,43.37
2018-03-27T05:14:12.147Z,46.50
2018-03-27T05:16:39.914Z,44.30
2018-03-27T05:19:07.504Z,40.33
2018-03-27T05:21:35.169Z,36.20
2018-03-27T05:24:02.745Z,39.67
2018-03-27T05:26:30.415Z,37.60
2018-03-27T05:28:58.068Z,34.20
2018-03-27T05:31:25.842Z,39.40
2018-03-27T05:33:53.664Z,40.87
2018-03-27T05:36:21.551Z,45.87
2018-03-27T05:38:49.384Z,50.23
2018-03-27T05:41:17.378Z,50.70
2018-03-27T05:43:45.247Z,52.63
2018-03-27T05:46:15.047Z,51.87
2018-03-27T05:48:42.647Z,55.93
2018-03-27T05:51:10.325Z,49.80
2018-03-27T05:53:38.010Z,44.80
2018-03-27T05:56:05.645Z,45.60
2018-03-27T05:58:33.381Z,46.77
2018-03-27T06:01:01.032Z,49.10
2018-03-27T06:03:28.629Z,52.23
2018-03-27T06:05:56.412Z,48.53
2018-03-27T06:08:24.091Z,51.83
2018-03-27T06:10:51.674Z,46.47
2018-03-27T06:13:19.641Z,51.70
2018-03-27T06:15:48.403Z,49.13
2018-03-27T06:18:16.047Z,51.57
2018-03-27T06:20:43.697Z,53.97
2018-03-27T06:23:11.354Z,55.00
2018-03-27T06:25:39.370Z,61.27
2018-03-27T06:28:06.958Z,52.30
2018-03-27T06:30:34.595Z,55.50
2018-03-27T06:33:02.563Z,49.20
2018-03-27T06:35:30.280Z,41.73
2018-03-27T06:37:57.956Z,55.90
2018-03-27T06:40:26.943Z,51.70
2018-03-27T06:42:54.861Z,65.53
2018-03-27T06:45:22.457Z,53.27
2018-03-27T06:47:50.067Z,63.77
2018-03-27T06:50:17.655Z,57.73
2018-03-27T06:52:45.368Z,54.83
2018-03-27T06:55:13.121Z,61.80
2018-03-27T06:57:40.972Z,58.40
2018-03-27T07:00:08.618Z,59.27
2018-03-27T07:02:36.348Z,52.00
2018-03-27T07:05:04.328Z,59.17
2018-03-27T07:07:32.002Z,59.33
2018-03-27T07:09:59.960Z,72.27
2018-03-27T07:12:27.674Z,55.90
2018-03-27T07:14:55.878Z,60.37
2018-03-27T07:17:23.516Z,64.20
2018-03-27T07:19:51.220Z,64.63
2018-03-27T07:22:18.904Z,58.60
2018-03-27T07:24:46.533Z,66.07
2018-03-27T07:27:14.313Z,69.40
2018-03-27T07:29:42.290Z,62.27
2018-03-27T07:32:13.297Z,65.47
2018-03-27T07:34:40.955Z,68.70
2018-03-27T07:37:08.546Z,71.00
2018-03-27T07:39:36.159Z,62.53
2018-03-27T07:42:03.808Z,68.83
2018-03-27T07:44:31.414Z,64.40
2018-03-27T07:46:59.014Z,72.93
2018-03-27T07:49:26.629Z,77.27
2018-03-27T07:51:54.353Z,64.50
2018-03-27T07:54:21.952Z,72.07
2018-03-27T07:56:49.554Z,63.20
2018-03-27T07:59:17.206Z,66.13
2018-03-27T08:01:44.877Z,73.00
2018-03-27T08:04:12.482Z,74.40
2018-03-27T08:06:40.170Z,79.37
2018-03-27T08:09:07.750Z,70.57
2018-03-27T08:11:35.397Z,75.33
2018-03-27T08:14:02.988Z,74.93
2018-03-27T08:16:30.588Z,67.50
2018-03-27T08:18:58.209Z,66.10
2018-03-27T08:21:25.963Z,63.10
2018-03-27T08:23:53.657Z,70.00
2018-03-27T08:26:21.234Z,70.23
2018-03-27T08:28:48.866Z,74.40
2018-03-27T08:31:16.462Z,56.03
2018-03-27T08:33:44.113Z,55.90
2018-03-27T08:36:12.103Z,52.20
2018-03-27T08:38:39.652Z,54.20
2018-03-27T08:41:07.255Z,50.20
2018-03-27T08:43:35.018Z,54.13
2018-03-27T08:46:02.645Z,50.10
2018-03-27T08:48:30.332Z,63.43
2018-03-27T08:50:58.290Z,47.40
2018-03-27T08:53:25.895Z,47.40
2018-03-27T08:55:53.573Z,52.07
2018-03-27T08:58:21.252Z,49.47
2018-03-27T09:00:48.881Z,47.10
2018-03-27T09:03:16.891Z,42.07
2018-03-27T09:05:44.495Z,48.50
2018-03-27T09:08:12.116Z,46.27
2018-03-27T09:10:39.844Z,47.67
2018-03-27T09:13:07.510Z,41.70
2018-03-27T09:15:35.104Z,38.73
2018-03-27T09:18:02.762Z,44.17
2018-03-27T09:20:30.376Z,42.07
2018-03-27T09:22:57.986Z,41.60
2018-03-27T09:25:25.654Z,37.90
2018-03-27T09:27:53.312Z,39.23
2018-03-27T09:30:20.903Z,39.37
2018-03-27T09:32:48.558Z,35.23
2018-03-27T09:35:16.231Z,32.83
2018-03-27T09:37:43.905Z,33.23
2018-03-27T09:40:11.545Z,32.10
2018-03-27T09:42:39.527Z,35.20
2018-03-27T09:45:07.112Z,31.63
2018-03-27T09:47:35.130Z,30.67
2018-03-27T09:50:02.736Z,35.97
2018-03-27T09:52:30.341Z,34.43
2018-03-27T09:54:58.234Z,30.80
2018-03-27T09:57:25.847Z,32.90
2018-03-27T09:59:53.468Z,32.47
2018-03-27T10:02:21.530Z,25.37
2018-03-27T10:04:49.121Z,23.23
2018-03-27T10:07:16.726Z,22.17
2018-03-27T10:09:44.384Z,16.43
2018-03-27T10:12:12.010Z,18.10
2018-03-27T10:14:39.681Z,15.67
2018-03-27T10:17:07.303Z,13.13
2018-03-27T10:19:35.281Z,24.07
2018-03-27T10:22:02.892Z,15.07
2018-03-27T10:24:30.560Z,19.53
2018-03-27T10:26:58.269Z,15.20
2018-03-27T10:29:25.858Z,12.10
2018-03-27T10:31:53.547Z,14.30
2018-03-27T10:34:21.487Z,13.90
2018-03-27T10:36:49.165Z,16.03
2018-03-27T10:39:17.092Z,10.83
2018-03-27T10:41:44.797Z,15.33
2018-03-27T10:44:12.465Z,10.70
2018-03-27T10:46:40.088Z,15.20
2018-03-27T10:49:07.703Z,14.27
2018-03-27T10:51:35.611Z,11.33
2018-03-27T10:54:03.634Z,25.00
2018-03-27T10:56:31.289Z,12.20
2018-03-27T10:58:58.887Z,12.80
2018-03-27T11:01:26.748Z,11.77
2018-03-27T11:03:54.437Z,15.13
2018-03-27T11:06:22.128Z,13.73
2018-03-27T11:08:49.728Z,18.50
2018-03-27T11:11:17.354Z,11.17
2018-03-27T11:13:44.942Z,8.70
2018-03-27T11:16:12.948Z,15.77
2018-03-27T11:18:40.616Z,13.30
2018-03-27T11:21:08.271Z,14.67
2018-03-27T11:23:35.861Z,12.67
2018-03-27T11:26:03.813Z,16.67
2018-03-27T11:28:31.470Z,13.93
2018-03-27T11:30:59.082Z,13.90
2018-03-27T11:33:26.756Z,13.60
2018-03-27T11:35:54.368Z,10.23
2018-03-27T11:38:21.989Z,15.73
2018-03-27T11:40:49.586Z,12.03
2018-03-27T11:43:17.251Z,15.60
2018-03-27T11:45:44.854Z,11.83
2018-03-27T11:48:12.483Z,15.13
2018-03-27T11:50:40.096Z,20.37
2018-03-27T11:53:07.702Z,18.73
2018-03-27T11:55:35.408Z,18.33
2018-03-27T11:58:03.061Z,19.00
2018-03-27T12:00:30.884Z,17.90
2018-03-27T12:02:58.632Z,15.30
2018-03-27T12:05:26.274Z,16.80
2018-03-27T12:07:53.896Z,16.40
2018-03-27T12:10:21.525Z,15.50
2018-03-27T12:12:49.244Z,17.77
2018-03-27T12:15:16.856Z,14.30
2018-03-27T12:17:44.459Z,19.43
2018-03-27T12:20:12.451Z,15.87
2018-03-27T12:22:40.107Z,14.93
2018-03-27T12:25:07.782Z,17.30
2018-03-27T12:27:35.485Z,14.00
2018-03-27T12:30:03.439Z,16.50
2018-03-27T12:32:31.082Z,18.20
2018-03-27T12:34:59.046Z,14.83
2018-03-27T12:37:26.632Z,14.07
2018-03-27T12:39:54.227Z,12.83
2018-03-27T12:42:21.917Z,15.33
2018-03-27T12:44:49.521Z,12.10
2018-03-27T12:47:17.490Z,10.37
2018-03-27T12:49:45.156Z,13.20
2018-03-27T12:52:12.758Z,16.50
2018-03-27T12:54:40.393Z,18.13
2018-03-27T12:57:08.339Z,14.47
2018-03-27T12:59:36.206Z,17.00
2018-03-27T13:02:04.347Z,15.20
2018-03-27T13:04:31.955Z,16.97
2018-03-27T13:06:59.549Z,47.20
2018-03-27T13:09:27.251Z,21.80
2018-03-27T13:11:54.853Z,16.93
2018-03-27T13:14:22.786Z,23.03
2018-03-27T13:16:50.421Z,17.30
2018-03-27T13:19:18.023Z,23.07
2018-03-27T13:21:45.644Z,17.03
2018-03-27T13:24:13.254Z,13.97
2018-03-27T13:26:40.945Z,22.27
2018-03-27T13:29:08.872Z,17.90
2018-03-27T13:31:36.524Z,17.60
2018-03-27T13:34:04.404Z,18.70
2018-03-27T13:36:32.167Z,13.30
2018-03-27T13:38:59.873Z,19.00
2018-03-27T13:41:27.449Z,15.63
2018-03-27T13:43:55.079Z,16.00
2018-03-27T13:46:22.794Z,16.13
2018-03-27T13:48:50.409Z,16.40
2018-03-27T13:51:17.996Z,17.33
2018-03-27T13:53:45.648Z,11.70
2018-03-27T13:56:13.316Z,11.10
2018-03-27T13:58:40.934Z,12.80
2018-03-27T14:01:08.553Z,12.83
2018-03-27T14:03:36.453Z,18.50
2018-03-27T14:06:04.122Z,12.00
2018-03-27T14:08:31.708Z,14.43
2018-03-27T14:10:59.345Z,12.33
2018-03-27T14:13:26.947Z,12.03
2018-03-27T14:15:54.569Z,15.73
2018-03-27T14:18:22.240Z,12.57
2018-03-27T14:20:49.894Z,14.73
2018-03-27T14:23:17.495Z,14.60
2018-03-27T14:25:45.159Z,16.27
2018-03-27T14:28:12.788Z,16.67
2018-03-27T14:30:40.378Z,19.87
2018-03-27T14:33:08.046Z,16.93
2018-03-27T14:35:35.951Z,13.67
2018-03-27T14:38:03.622Z,19.20
2018-03-27T14:40:31.232Z,15.97
2018-03-27T14:42:58.831Z,15.90
2018-03-27T14:45:26.713Z,19.43
2018-03-27T14:47:54.307Z,17.50
2018-03-27T14:50:21.907Z,18.53
2018-03-27T14:52:49.589Z,19.30
2018-03-27T14:55:17.230Z,21.77
2018-03-27T14:57:44.836Z,22.30
2018-03-27T15:00:12.501Z,23.93
2018-03-27T15:02:40.472Z,23.00
2018-03-27T15:05:08.077Z,19.50
2018-03-27T15:07:35.981Z,25.40
2018-03-27T15:10:03.594Z,23.77
2018-03-27T15:12:31.607Z,24.97
2018-03-27T15:14:59.441Z,24.63
2018-03-27T15:17:27.040Z,23.33
2018-03-27T15:19:54.662Z,19.37
2018-03-27T15:22:22.320Z,24.53
2018-03-27T15:24:49.977Z,22.10
2018-03-27T15:27:17.899Z,23.63
2018-03-27T15:29:45.571Z,22.50
2018-03-27T15:32:13.240Z,25.77
2018-03-27T15:34:40.866Z,21.13
2018-03-27T15:37:08.507Z,24.10
2018-03-27T15:39:36.161Z,29.07
2018-03-27T15:42:03.753Z,23.97
2018-03-27T15:44:31.424Z,32.80
2018-03-27T15:46:59.007Z,23.50
2018-03-27T15:49:26.600Z,25.60
2018-03-27T15:51:54.248Z,21.20
2018-03-27T15:54:21.850Z,24.57
2018-03-27T15:56:49.508Z,25.90
2018-03-27T15:59:17.470Z,20.73
2018-03-27T16:01:45.146Z,24.50
2018-03-27T16:04:12.767Z,23.87
2018-03-27T16:06:40.449Z,26.17
2018-03-27T16:09:08.055Z,22.87
2018-03-27T16:11:35.667Z,24.50
2018-03-27T16:14:03.383Z,24.83
2018-03-27T16:16:31.368Z,24.90
2018-03-27T16:18:58.977Z,30.77
2018-03-27T16:21:27.366Z,24.33
2018-03-27T16:23:55.020Z,27.27
2018-03-27T16:26:22.688Z,23.17
2018-03-27T16:28:50.271Z,26.07
2018-03-27T16:31:17.914Z,29.27
2018-03-27T16:33:45.506Z,29.63
2018-03-27T16:36:13.094Z,29.03
2018-03-27T16:38:40.792Z,26.03
2018-03-27T16:41:08.379Z,31.43
2018-03-27T16:43:35.997Z,31.30
2018-03-27T16:46:03.933Z,22.60
2018-03-27T16:48:31.540Z,22.20
2018-03-27T16:50:59.121Z,24.27
2018-03-27T16:53:27.105Z,23.03
2018-03-27T16:55:55.137Z,23.80
2018-03-27T16:58:22.722Z,39.97
2018-03-27T17:00:50.703Z,30.27
2018-03-27T17:03:18.364Z,34.10
2018-03-27T17:05:46.334Z,25.40
2018-03-27T17:08:13.983Z,26.17
2018-03-27T17:10:41.645Z,26.60
2018-03-27T17:13:09.238Z,27.90
2018-03-27T17:15:36.897Z,23.77
2018-03-27T17:18:05.103Z,23.80
2018-03-27T17:20:32.688Z,25.13
2018-03-27T17:23:00.351Z,26.93
2018-03-27T17:25:27.952Z,24.30
2018-03-27T17:27:55.604Z,31.43
2018-03-27T17:30:23.331Z,28.43
2018-03-27T17:32:54.063Z,30.40
2018-03-27T17:35:21.666Z,32.93
2018-03-27T17:37:49.473Z,33.00
2018-03-27T17:40:17.301Z,31.07
2018-03-27T17:42:45.150Z,35.17
2018-03-27T17:45:13.208Z,27.83
2018-03-27T17:47:40.798Z,36.93
2018-03-27T17:50:08.461Z,31.87
2018-03-27T17:52:36.572Z,42.23
2018-03-27T17:55:04.455Z,31.27
2018-03-27T17:57:32.037Z,26.73
2018-03-27T17:59:59.662Z,25.10
2018-03-27T18:02:27.581Z,27.00
2018-03-27T18:04:55.558Z,25.20
2018-03-27T18:07:23.154Z,26.80
2018-03-27T18:09:51.090Z,25.60
2018-03-27T18:12:18.699Z,28.93
2018-03-27T18:14:46.593Z,36.20
2018-03-27T18:17:14.169Z,30.97
2018-03-27T18:19:42.009Z,28.73
2018-03-27T18:22:09.696Z,31.07
2018-03-27T18:24:37.567Z,28.13
2018-03-27T18:27:05.158Z,27.13
2018-03-27T18:29:32.849Z,32.40
2018-03-27T18:32:00.541Z,31.80
2018-03-27T18:34:28.424Z,34.60
2018-03-27T18:36:56.021Z,28.13
2018-03-27T18:39:23.678Z,31.03
2018-03-27T18:41:51.615Z,31.90
2018-03-27T18:44:19.269Z,33.80
2018-03-27T18:46:46.952Z,33.70
2018-03-27T18:49:14.662Z,37.50
2018-03-27T18:51:42.267Z,39.67
2018-03-27T18:54:09.907Z,38.03
2018-03-27T18:56:37.902Z,37.43
2018-03-27T18:59:05.490Z,38.30
2018-03-27T19:01:33.487Z,34.47
2018-03-27T19:04:01.060Z,39.10
2018-03-27T19:06:28.968Z,43.07
2018-03-27T19:08:56.586Z,37.50
2018-03-27T19:11:24.195Z,33.57
2018-03-27T19:13:51.845Z,34.97
2018-03-27T19:16:19.497Z,39.67
2018-03-27T19:18:47.059Z,40.40
2018-03-27T19:21:14.673Z,46.90
2018-03-27T19:23:42.659Z,42.57
2018-03-27T19:26:10.290Z,42.70
2018-03-27T19:28:37.909Z,41.83
2018-03-27T19:31:05.525Z,46.53
2018-03-27T19:33:33.109Z,43.23
2018-03-27T19:36:00.973Z,48.13
2018-03-27T19:38:28.839Z,47.00
2018-03-27T19:40:56.532Z,44.00
2018-03-27T19:43:24.180Z,42.80
2018-03-27T19:45:52.124Z,47.80
2018-03-27T19:48:19.733Z,46.37
2018-03-27T19:50:47.402Z,41.53
2018-03-27T19:53:15.066Z,51.03
2018-03-27T19:55:42.659Z,46.10
2018-03-27T19:58:10.378Z,46.27
2018-03-27T20:00:38.010Z,44.37
2018-03-27T20:03:05.605Z,49.43
2018-03-27T20:05:33.327Z,49.80
2018-03-27T20:08:00.913Z,47.70
2018-03-27T20:10:28.518Z,47.57
2018-03-27T20:12:56.137Z,54.30
2018-03-27T20:15:23.859Z,50.33
2018-03-27T20:17:51.558Z,58.10
2018-03-27T20:20:19.542Z,58.40
2018-03-27T20:22:47.667Z,57.67
2018-03-27T20:25:15.254Z,69.73
2018-03-27T20:27:43.143Z,54.27
2018-03-27T20:30:11.126Z,63.93
2018-03-27T20:32:38.777Z,62.27
2018-03-27T20:35:06.914Z,52.50
2018-03-27T20:37:34.505Z,52.93
2018-03-27T20:40:02.114Z,53.23
2018-03-27T20:42:30.192Z,58.20
2018-03-27T20:44:57.852Z,54.90
2018-03-27T20:47:25.440Z,50.30
2018-03-27T20:49:53.510Z,47.90
2018-03-27T20:52:21.153Z,52.33
2018-03-27T20:54:48.754Z,53.97
2018-03-27T20:57:16.448Z,50.90
2018-03-27T20:59:44.395Z,53.43
2018-03-27T21:02:12.288Z,57.07
2018-03-27T21:04:39.902Z,53.73
2018-03-27T21:07:07.582Z,61.03
2018-03-27T21:09:35.767Z,54.77
2018-03-27T21:12:04.196Z,57.97
2018-03-27T21:14:32.235Z,58.90
2018-03-27T21:17:00.166Z,64.30
2018-03-27T21:19:28.150Z,61.77
2018-03-27T21:21:56.104Z,66.57
2018-03-27T21:24:23.694Z,54.20
2018-03-27T21:26:51.378Z,58.77
2018-03-27T21:29:19.218Z,55.47
2018-03-27T21:31:46.796Z,56.50
2018-03-27T21:34:14.472Z,61.20
2018-03-27T21:36:42.146Z,55.27
2018-03-27T21:39:09.790Z,57.27
2018-03-27T21:41:37.730Z,61.83
2018-03-27T21:44:05.306Z,52.30
2018-03-27T21:46:33.305Z,60.10
2018-03-27T21:49:00.881Z,60.37
2018-03-27T21:51:28.468Z,64.17
2018-03-27T21:53:56.185Z,55.57
2018-03-27T21:56:23.772Z,67.77
2018-03-27T21:58:51.389Z,55.17
2018-03-27T22:01:19.434Z,58.23
2018-03-27T22:03:47.068Z,54.67
2018-03-27T22:06:14.727Z,63.23
2018-03-27T22:08:42.412Z,59.80
2018-03-27T22:11:10.013Z,57.63
2018-03-27T22:13:37.599Z,56.07
2018-03-27T22:16:05.230Z,49.97
2018-03-27T22:18:32.894Z,54.40
2018-03-27T22:21:00.529Z,53.93
2018-03-27T22:23:28.197Z,57.60
2018-03-27T22:25:55.878Z,57.90
2018-03-27T22:28:24.123Z,54.00
2018-03-27T22:30:51.715Z,55.63
2018-03-27T22:33:19.297Z,53.60
2018-03-27T22:35:47.214Z,55.63
2018-03-27T22:38:14.827Z,58.90
2018-03-27T22:40:43.796Z,63.63
2018-03-27T22:43:12.315Z,54.07
2018-03-27T22:45:43.907Z,48.80
2018-03-27T22:48:11.623Z,51.67
2018-03-27T22:50:39.202Z,58.73
2018-03-27T22:53:06.805Z,56.00
2018-03-27T22:55:34.516Z,52.43
2018-03-27T22:58:02.421Z,56.57
2018-03-27T23:00:30.086Z,58.07
2018-03-27T23:02:57.680Z,50.40
2018-03-27T23:05:25.315Z,47.80
2018-03-27T23:07:52.956Z,58.07
2018-03-27T23:10:20.942Z,46.47
2018-03-27T23:12:48.633Z,53.40
2018-03-27T23:15:16.239Z,50.40
2018-03-27T23:17:43.850Z,57.03
2018-03-27T23:20:11.441Z,50.37
2018-03-27T23:22:39.361Z,55.67
2018-03-27T23:25:06.989Z,56.77
2018-03-27T23:27:34.587Z,55.10
2018-03-27T23:30:02.178Z,54.77
2018-03-27T23:32:29.887Z,57.60
2018-03-27T23:34:57.570Z,54.97
2018-03-27T23:37:25.599Z,62.30
2018-03-27T23:39:53.609Z,54.53
2018-03-27T23:42:21.209Z,60.07
2018-03-27T23:44:49.149Z,51.13
2018-03-27T23:47:16.858Z,58.33
2018-03-27T23:49:44.875Z,60.20
2018-03-27T23:52:12.522Z,56.40
2018-03-27T23:54:40.228Z,60.13
2018-03-27T23:57:07.822Z,56.40
2018-03-27T23:59:35.487Z,61.57
